Etusivu
METAR-TAF:

METAR-TAF

Lentoasemat :

Curaçao, Alankomaiden Antillit

Leveyspiiri: 12-12N, Pituuspiiri: 068-58W, korkeus merenpinnasta: 9 m

Tämänhetkinen sää

Tämä raportti tehtiin 32 minuuttia sitten, kello 17.00 UTC
Tuuli 13 kn idästä
Lämpötila 32°C
Kosteus 67%
Ilmanpaine 1013 hPa
Näkyvyys 10 km tai enemmän
Muutamia pilviä 3000 ft:n korkeudessa

METAR: TNCC 131700Z 09013KT 9999 FEW030 32/25 Q1013 NOSIG

Aika: 13:32 (17:32 UTC)

Sääennuste

Tämä raportti tehtiin 6 tuntia ja 32 minuuttia sitten, kello 11.00 UTC
Ennuste voimassa 13. päivästä klo 12 UTC - 14. päivään klo 12 UTC
Tuuli 13 kn idästä
Näkyvyys 10 km tai enemmän
Hajanaisia pilviä 2200 ft:n korkeudessa
Ajoittain
13. päivästä klo 14 UTC - 13. päivään klo 20 UTC
Tuuli 15 kn idästä puuskistuen 26 kn:hen

TAF: TNCC 131100Z 1312/1412 10013KT 9999 SCT022 TEMPO 1314/1320 10015G26KT

Säähavainnot ja -ennusteet yli 4000 lentoasemalta (METAR- ja TAF-raportit).

Käytössä olevat sääasemat on merkitty karttaan keltaisilla ja punaisilla pisteillä.

Aseta hiiri pisteen päälle nähdäksesi sääaseman nimen.

Klikkaa sitten nähdäksesi säähavainnot ja -ennusteet.

Kartan vaihtaminen: klikkaa mustalla rastilla varustettuja vihreitä pisteitä, niin voit zoomata sisään; viivalla varustettua vihreää pistettä, niin voit zoomata ulos tai vihreitä nuolia, niin pääset viereisille kartoille.


METAR-TAF: